Time;durP1;ratioP1;P1;durP2;ratioP2;P2;SDS_P1;SDS_P2;PMS_P1;PMS_P2;Temp;Humidity;BMP_temperature;BMP_pressure;BME280_temperature;BME280_humidity;BME280_pressure;Samples;Min_cycle;Max_cycle;Signal;HPM_P1;HPM_P2
2022/01/13 00:00:51;;;;;;;10.35;4.65;;;;;;;-5.28;97.65;100331.19;5070710;28;20048;-86
2022/01/13 00:03:17;;;;;;;10.18;4.38;;;;;;;-5.25;97.85;100317.44;5057035;28;20067;-87
2022/01/13 00:05:42;;;;;;;7.72;4.18;;;;;;;-5.23;97.69;100310.06;5070477;28;20041;-85
2022/01/13 00:08:08;;;;;;;2.40;1.58;;;;;;;-5.18;98.22;100304.16;5069516;28;20032;-85
2022/01/13 00:10:34;;;;;;;5.25;2.40;;;;;;;-5.14;97.68;100280.53;5050393;28;20083;-85
2022/01/13 00:13:06;;;;;;;1.10;0.98;;;;;;;-5.07;97.40;100281.44;5061802;28;20052;-86
2022/01/13 00:16:22;;;;;;;7.75;3.10;;;;;;;-5.04;98.17;100270.34;5052742;28;20127;-86
2022/01/13 00:18:48;;;;;;;5.53;3.03;;;;;;;-4.99;97.93;100241.22;5033653;28;20040;-85
2022/01/13 00:21:28;;;;;;;7.28;3.53;;;;;;;-4.96;97.72;100243.50;5051696;28;20111;-86
2022/01/13 00:23:55;;;;;;;11.55;4.15;;;;;;;-4.90;97.82;100240.06;5050953;28;20045;-87
2022/01/13 00:26:25;;;;;;;7.75;3.75;;;;;;;-4.86;98.24;100217.22;5051137;28;20526;-86
2022/01/13 00:28:53;;;;;;;8.32;3.42;;;;;;;-4.82;97.85;100201.66;5050669;28;20442;-85
2022/01/13 00:31:30;;;;;;;1.75;1.20;;;;;;;-4.79;98.38;100188.72;5051240;28;20040;-86
2022/01/13 00:33:57;;;;;;;6.22;3.15;;;;;;;-4.73;98.24;100181.75;5061789;28;20040;-84
2022/01/13 00:36:27;;;;;;;3.75;2.53;;;;;;;-4.68;98.28;100185.53;5033167;28;20041;-87
2022/01/13 00:38:54;;;;;;;10.02;4.65;;;;;;;-4.65;98.20;100179.78;5051448;28;20041;-86
2022/01/13 00:41:20;;;;;;;4.93;3.08;;;;;;;-4.62;98.65;100166.00;5035771;28;20047;-86
2022/01/13 00:43:47;;;;;;;5.22;1.65;;;;;;;-4.59;98.38;100157.56;5050372;28;20692;-86
2022/01/13 00:46:20;;;;;;;2.45;1.77;;;;;;;-4.54;98.76;100127.53;5032742;28;20032;-85
2022/01/13 00:48:46;;;;;;;2.17;1.35;;;;;;;-4.50;98.57;100139.53;5050111;28;20040;-86
2022/01/13 00:51:11;;;;;;;2.90;1.83;;;;;;;-4.47;98.86;100147.16;5050470;28;20573;-86
2022/01/13 00:53:37;;;;;;;5.63;2.28;;;;;;;-4.46;98.58;100119.34;5050730;28;20028;-86
2022/01/13 00:56:03;;;;;;;9.07;3.88;;;;;;;-4.42;98.78;100122.47;5033191;28;20485;-86
2022/01/13 00:58:30;;;;;;;3.78;1.85;;;;;;;-4.40;98.87;100120.41;5050442;28;20075;-86
2022/01/13 01:00:57;;;;;;;7.30;4.65;;;;;;;-4.38;98.61;100119.19;5051303;28;20037;-86
2022/01/13 01:03:23;;;;;;;9.93;4.28;;;;;;;-4.35;99.22;100115.28;5049222;28;20045;-86
2022/01/13 01:05:49;;;;;;;8.32;4.13;;;;;;;-4.33;99.01;100092.66;5033323;28;20040;-86
2022/01/13 01:08:15;;;;;;;6.75;2.72;;;;;;;-4.31;98.84;100097.81;5050593;28;20029;-86
2022/01/13 01:10:42;;;;;;;7.03;3.65;;;;;;;-4.29;99.13;100087.72;5050388;28;20132;-86
2022/01/13 01:13:13;;;;;;;6.90;3.70;;;;;;;-4.27;99.32;100093.72;5050973;28;20025;-86
2022/01/13 01:15:42;;;;;;;2.47;1.13;;;;;;;-4.23;99.36;100084.25;5050796;28;20045;-86
2022/01/13 01:18:35;;;;;;;;;;;;;;;-4.21;99.40;100068.81;5051261;28;20104;-86
2022/01/13 01:31:35;;;;;;;4.60;2.30;;;;;;;-4.07;99.48;100038.38;5049982;28;20120;-85
2022/01/13 01:34:23;;;;;;;4.65;2.33;;;;;;;-4.06;99.46;100021.25;5066928;28;20491;-85
2022/01/13 01:36:51;;;;;;;6.38;2.67;;;;;;;-4.03;99.35;100004.78;5034814;28;20040;-86
2022/01/13 01:39:16;;;;;;;2.45;2.00;;;;;;;-4.00;99.29;99990.13;5052962;28;20040;-85
2022/01/13 01:41:45;;;;;;;2.63;1.55;;;;;;;-3.99;99.44;99973.06;5052366;28;20029;-85
2022/01/13 01:44:42;;;;;;;8.98;3.35;;;;;;;-3.99;98.91;99941.72;5053097;28;20044;-85
2022/01/13 01:47:13;;;;;;;7.72;3.17;;;;;;;-3.98;99.25;99950.59;5053804;28;20086;-85
2022/01/13 01:49:42;;;;;;;2.83;1.38;;;;;;;-3.98;99.29;99935.34;5053483;28;20527;-86
2022/01/13 01:52:10;;;;;;;6.57;1.75;;;;;;;-3.96;99.11;99925.25;5035238;28;20041;-86
2022/01/13 01:54:36;;;;;;;4.40;2.03;;;;;;;-3.95;99.41;99918.84;5032604;28;20522;-85
2022/01/13 01:57:03;;;;;;;10.80;5.13;;;;;;;-3.94;99.85;99898.25;5032443;28;20045;-82
2022/01/13 01:59:31;;;;;;;10.90;5.05;;;;;;;-3.92;99.20;99888.13;5033251;28;20048;-83
2022/01/13 02:01:58;;;;;;;11.03;5.13;;;;;;;-3.90;99.76;99872.66;5037187;28;20039;-83
2022/01/13 02:04:26;;;;;;;10.15;4.68;;;;;;;-3.87;99.90;99866.06;5062143;28;20041;-83
2022/01/13 02:06:54;;;;;;;7.43;4.30;;;;;;;-3.82;99.33;99852.88;5036109;28;20075;-83
2022/01/13 02:09:21;;;;;;;10.83;5.60;;;;;;;-3.81;99.59;99827.75;5053670;28;20043;-83
2022/01/13 02:11:52;;;;;;;9.43;4.82;;;;;;;-3.78;99.55;99825.47;5036185;28;20098;-83
2022/01/13 02:16:52;;;;;;;7.47;4.63;;;;;;;-3.68;99.78;99830.38;5066803;28;20041;-83
2022/01/13 02:19:18;;;;;;;13.27;4.93;;;;;;;-3.66;99.67;99834.50;5056215;28;20037;-84
2022/01/13 02:21:44;;;;;;;6.50;3.90;;;;;;;-3.62;99.34;99842.97;5056782;28;20086;-84
2022/01/13 02:24:10;;;;;;;8.30;4.80;;;;;;;-3.57;99.27;99848.53;5060172;28;20490;-83
2022/01/13 02:26:36;;;;;;;10.82;5.00;;;;;;;-3.54;99.26;99861.50;5060317;28;20443;-83
2022/01/13 02:29:02;;;;;;;8.68;4.72;;;;;;;-3.50;99.86;99856.53;5060831;28;20045;-83
2022/01/13 02:31:28;;;;;;;9.95;5.25;;;;;;;-3.49;99.75;99848.28;5060027;28;20044;-83
2022/01/13 02:33:54;;;;;;;8.25;5.13;;;;;;;-3.43;99.68;99836.75;5059395;28;20039;-83
2022/01/13 02:36:22;;;;;;;8.23;3.88;;;;;;;-3.40;99.38;99820.22;5058284;28;20131;-84
2022/01/13 02:38:53;;;;;;;8.70;4.43;;;;;;;-3.34;99.58;99807.81;5035805;28;20779;-84
2022/01/13 02:41:23;;;;;;;6.55;3.47;;;;;;;-3.28;99.33;99792.75;5041056;28;20044;-83
2022/01/13 02:43:50;;;;;;;11.52;4.55;;;;;;;-3.24;99.93;99783.25;5058155;28;20056;-84
2022/01/13 02:46:43;;;;;;;7.03;4.18;;;;;;;-3.23;99.87;99774.16;5065685;28;20040;-83
2022/01/13 02:49:13;;;;;;;9.88;4.55;;;;;;;-3.17;99.51;99768.75;5038988;28;20041;-84
2022/01/13 02:51:41;;;;;;;8.68;4.57;;;;;;;-3.13;99.82;99761.09;5057808;28;20581;-84
2022/01/13 02:54:07;;;;;;;8.65;4.43;;;;;;;-3.12;99.75;99752.03;5041143;28;20059;-85
2022/01/13 02:56:34;;;;;;;8.25;4.78;;;;;;;-3.11;100.00;99738.41;5038763;28;20503;-83
2022/01/13 02:59:00;;;;;;;8.98;4.65;;;;;;;-3.06;99.64;99738.56;5057474;28;20041;-84
2022/01/13 03:01:25;;;;;;;9.02;4.57;;;;;;;-3.00;99.57;99720.78;5043100;28;20044;-84
2022/01/13 03:03:51;;;;;;;11.07;4.90;;;;;;;-2.97;99.63;99717.66;5056977;28;20091;-84
2022/01/13 03:06:28;;;;;;;7.57;4.63;;;;;;;-2.94;99.75;99711.88;5057183;28;20051;-84
2022/01/13 03:08:53;;;;;;;9.50;4.00;;;;;;;-2.87;99.83;99706.47;5039707;28;20068;-84
2022/01/13 03:11:22;;;;;;;7.47;4.47;;;;;;;-2.84;100.00;99698.78;5049881;28;20136;-84
2022/01/13 03:13:48;;;;;;;9.05;4.20;;;;;;;-2.79;99.80;99672.09;5036806;28;20411;-85
2022/01/13 03:16:14;;;;;;;5.05;2.97;;;;;;;-2.76;99.92;99658.28;5048458;28;20039;-83
2022/01/13 03:18:40;;;;;;;9.00;4.60;;;;;;;-2.71;100.00;99662.97;5058632;28;20130;-84
2022/01/13 03:21:07;;;;;;;6.55;3.75;;;;;;;-2.66;100.00;99663.13;5058788;28;20040;-84
2022/01/13 03:23:34;;;;;;;7.57;4.30;;;;;;;-2.62;100.00;99655.47;5056519;28;20089;-84
2022/01/13 03:26:00;;;;;;;7.15;4.05;;;;;;;-2.60;100.00;99656.91;5056785;28;20032;-84
2022/01/13 03:28:30;;;;;;;6.32;3.90;;;;;;;-2.56;100.00;99638.47;5053234;28;20032;-84
2022/01/13 03:30:57;;;;;;;6.00;3.53;;;;;;;-2.53;100.00;99635.34;5062767;28;20043;-84
2022/01/13 03:33:23;;;;;;;5.90;3.60;;;;;;;-2.51;100.00;99619.84;5052189;28;20128;-84
2022/01/13 03:35:49;;;;;;;8.57;4.88;;;;;;;-2.48;100.00;99614.84;5049694;28;20439;-83
2022/01/13 03:38:14;;;;;;;6.10;4.15;;;;;;;-2.43;100.00;99595.38;5054775;28;20091;-83
2022/01/13 03:40:40;;;;;;;7.78;3.95;;;;;;;-2.40;100.00;99597.63;5039639;28;20127;-83
2022/01/13 03:43:06;;;;;;;5.18;2.92;;;;;;;-2.34;100.00;99582.47;5037789;28;20087;-83
2022/01/13 03:45:32;;;;;;;7.30;3.08;;;;;;;-2.32;100.00;99585.75;5055516;28;20123;-84
2022/01/13 03:47:59;;;;;;;7.50;3.92;;;;;;;-2.29;100.00;99566.50;5051972;28;20110;-83
2022/01/13 03:50:25;;;;;;;2.78;1.55;;;;;;;-2.25;100.00;99565.03;5052985;28;20389;-83
2022/01/13 03:53:02;;;;;;;4.88;3.00;;;;;;;-2.20;100.00;99549.88;5033155;28;20104;-82
2022/01/13 03:55:38;;;;;;;6.78;3.80;;;;;;;-2.15;100.00;99533.88;5053760;28;20117;-84
2022/01/13 03:58:22;;;;;;;6.38;3.38;;;;;;;-2.13;100.00;99487.97;5051009;28;20047;-82
2022/01/13 04:01:06;;;;;;;4.78;3.20;;;;;;;-2.12;100.00;99457.34;5050545;28;20403;-83
2022/01/13 04:03:32;;;;;;;6.10;3.35;;;;;;;-2.12;100.00;99458.16;5034165;28;20529;-82
2022/01/13 04:06:12;;;;;;;6.22;3.22;;;;;;;-2.08;100.00;99441.59;5051080;28;20029;-83
2022/01/13 04:08:39;;;;;;;7.65;3.55;;;;;;;-2.04;100.00;99435.53;5057946;28;20048;-82
2022/01/13 04:11:04;;;;;;;5.65;3.00;;;;;;;-2.01;100.00;99421.66;5043732;28;20522;-82
2022/01/13 04:16:19;;;;;;;7.25;3.30;;;;;;;-1.90;100.00;99398.53;5055960;28;20064;-85
2022/01/13 04:18:48;;;;;;;4.60;2.55;;;;;;;-1.82;100.00;99388.25;5034563;28;20071;-86
2022/01/13 04:21:17;;;;;;;5.10;3.05;;;;;;;-1.75;100.00;99392.69;5031882;28;20056;-85
2022/01/13 04:23:43;;;;;;;4.10;2.50;;;;;;;-1.66;100.00;99408.28;5038660;28;20037;-85
2022/01/13 04:26:08;;;;;;;3.85;2.55;;;;;;;-1.59;100.00;99402.78;5056991;28;20462;-82
2022/01/13 04:28:35;;;;;;;4.55;2.55;;;;;;;-1.55;100.00;99402.09;5047224;28;20041;-77
2022/01/13 04:31:02;;;;;;;5.18;2.63;;;;;;;-1.47;100.00;99406.31;5056685;28;20093;-78
2022/01/13 04:33:28;;;;;;;4.80;3.17;;;;;;;-1.41;100.00;99396.47;5054448;28;20077;-78
2022/01/13 04:35:54;;;;;;;4.80;2.90;;;;;;;-1.35;100.00;99385.63;5057683;28;20380;-79
2022/01/13 04:38:19;;;;;;;5.40;2.92;;;;;;;-1.28;100.00;99397.06;5051559;28;20501;-78
2022/01/13 04:40:48;;;;;;;5.32;3.03;;;;;;;-1.20;100.00;99393.22;5049746;28;20559;-84
2022/01/13 04:43:14;;;;;;;5.32;3.00;;;;;;;-1.14;100.00;99386.88;5048837;28;20072;-81
2022/01/13 04:45:40;;;;;;;3.92;2.40;;;;;;;-1.08;100.00;99367.09;5052116;28;20040;-81
2022/01/13 04:48:06;;;;;;;4.30;2.72;;;;;;;-1.04;100.00;99354.81;5050310;28;20032;-81
2022/01/13 04:50:31;;;;;;;3.80;2.55;;;;;;;-0.96;100.00;99359.00;5050821;28;20069;-82
2022/01/13 04:52:57;;;;;;;3.65;2.45;;;;;;;-0.89;100.00;99358.84;5032975;28;20036;-82
2022/01/13 04:55:29;;;;;;;4.47;2.72;;;;;;;-0.85;100.00;99339.31;5032730;28;20507;-82
2022/01/13 04:57:55;;;;;;;3.45;2.25;;;;;;;-0.83;100.00;99339.91;5049395;28;20037;-82
2022/01/13 05:00:22;;;;;;;2.63;1.75;;;;;;;-0.81;100.00;99327.00;5050478;28;20037;-82
2022/01/13 05:02:48;;;;;;;5.13;2.67;;;;;;;-0.76;100.00;99324.41;5050343;28;20033;-82
2022/01/13 05:05:14;;;;;;;4.00;2.45;;;;;;;-0.74;100.00;99305.31;5050330;28;20416;-83
2022/01/13 05:07:40;;;;;;;3.75;1.90;;;;;;;-0.71;100.00;99291.34;5065989;28;20071;-82
2022/01/13 05:10:06;;;;;;;5.85;2.80;;;;;;;-0.72;100.00;99260.09;5050802;28;20033;-81
2022/01/13 05:12:41;;;;;;;5.35;2.58;;;;;;;-0.70;100.00;99269.56;5047404;28;20103;-81
2022/01/13 05:15:09;;;;;;;3.88;2.50;;;;;;;-0.66;100.00;99256.44;5062670;28;20044;-81
2022/01/13 05:20:26;;;;;;;2.92;2.58;;;;;;;-0.62;100.00;99242.25;5032535;28;20043;-81
2022/01/13 05:22:52;;;;;;;5.95;2.90;;;;;;;-0.59;100.00;99258.97;5048847;28;20047;-81
2022/01/13 05:25:19;;;;;;;3.88;2.20;;;;;;;-0.56;100.00;99237.75;5050165;28;20041;-82
2022/01/13 05:27:45;;;;;;;5.35;2.83;;;;;;;-0.58;100.00;99228.28;5050195;28;20072;-82
2022/01/13 05:30:12;;;;;;;3.63;1.92;;;;;;;-0.56;100.00;99221.59;5050441;28;20533;-82
2022/01/13 05:32:39;;;;;;;4.57;2.20;;;;;;;-0.51;100.00;99183.97;5065598;28;20366;-81
2022/01/13 05:35:05;;;;;;;3.33;2.58;;;;;;;-0.51;100.00;99146.25;5050391;28;20110;-82
2022/01/13 05:37:31;;;;;;;3.33;2.20;;;;;;;-0.54;100.00;99146.72;5036091;28;20171;-81
2022/01/13 05:39:57;;;;;;;2.80;2.50;;;;;;;-0.51;100.00;99132.78;5053789;28;20037;-81
2022/01/13 05:42:23;;;;;;;6.25;2.38;;;;;;;-0.51;100.00;99137.38;5054037;28;20579;-81
2022/01/13 05:44:48;;;;;;;5.00;2.58;;;;;;;-0.48;100.00;99155.72;5052732;28;20135;-81
2022/01/13 05:47:14;;;;;;;3.75;2.63;;;;;;;-0.49;100.00;99164.88;5054144;28;20514;-81
2022/01/13 05:49:41;;;;;;;3.83;2.60;;;;;;;-0.47;100.00;99151.97;5035839;28;20052;-81
2022/01/13 05:52:07;;;;;;;4.53;2.55;;;;;;;-0.44;100.00;99167.63;5028419;28;20495;-81
2022/01/13 05:54:33;;;;;;;4.93;1.90;;;;;;;-0.40;100.00;99109.50;5053612;28;20051;-81
2022/01/13 05:56:58;;;;;;;3.38;2.50;;;;;;;-0.37;100.00;99117.06;5051974;28;20045;-81
2022/01/13 05:59:24;;;;;;;3.25;2.53;;;;;;;-0.32;100.00;99069.47;5035532;28;20037;-81
2022/01/13 06:01:51;;;;;;;2.92;1.98;;;;;;;-0.28;100.00;99074.38;5053770;28;20487;-81
2022/01/13 06:04:16;;;;;;;6.10;2.20;;;;;;;-0.20;100.00;99063.13;5035839;28;20029;-82
2022/01/13 06:06:42;;;;;;;4.65;2.45;;;;;;;-0.18;100.00;99050.22;5069312;28;20041;-81
2022/01/13 06:09:08;;;;;;;5.60;2.50;;;;;;;-0.20;100.00;99049.66;5035485;28;20078;-81
2022/01/13 06:11:39;;;;;;;3.00;2.03;;;;;;;-0.16;100.00;99024.66;5053495;28;20048;-82
2022/01/13 06:14:10;;;;;;;4.43;2.13;;;;;;;-0.14;100.00;99021.72;5053750;28;20033;-82
2022/01/13 06:16:36;;;;;;;4.75;2.55;;;;;;;-0.12;100.00;99033.06;5053317;28;20510;-81
2022/01/13 06:19:02;;;;;;;5.07;2.28;;;;;;;-0.06;100.00;99032.06;5053652;28;20114;-82
2022/01/13 06:21:28;;;;;;;4.90;2.00;;;;;;;-0.02;100.00;99043.97;5053407;28;20052;-81
2022/01/13 06:23:54;;;;;;;4.18;2.22;;;;;;;-0.02;100.00;99023.19;5038337;28;20472;-82
2022/01/13 06:26:19;;;;;;;3.42;2.08;;;;;;;0.06;100.00;99018.44;5049983;28;20504;-82
2022/01/13 06:28:45;;;;;;;4.28;2.60;;;;;;;0.10;100.00;99035.75;5052865;28;20047;-82
2022/01/13 06:31:11;;;;;;;4.40;2.20;;;;;;;0.09;100.00;99043.03;5062799;28;20040;-81
2022/01/13 06:33:37;;;;;;;3.53;1.80;;;;;;;0.14;100.00;99055.75;5062136;28;20032;-81
2022/01/13 06:36:04;;;;;;;4.82;2.10;;;;;;;0.17;100.00;99071.41;5066024;28;20044;-81
2022/01/13 06:38:30;;;;;;;4.25;2.15;;;;;;;0.25;100.00;99074.50;5061217;28;20495;-82
2022/01/13 06:40:56;;;;;;;4.75;2.20;;;;;;;0.25;100.00;99068.28;5059532;28;20049;-81
2022/01/13 06:43:22;;;;;;;4.38;2.00;;;;;;;0.28;100.00;99040.81;5055676;28;20124;-80
2022/01/13 06:45:48;;;;;;;3.20;1.90;;;;;;;0.29;100.00;99048.66;5035191;28;20063;-81
2022/01/13 06:48:19;;;;;;;3.05;1.98;;;;;;;0.37;100.00;99049.28;5034033;28;20033;-81
2022/01/13 06:50:45;;;;;;;6.45;2.30;;;;;;;0.36;100.00;99039.56;5053381;28;20048;-80
2022/01/13 06:53:11;;;;;;;3.55;2.17;;;;;;;0.42;100.00;99039.34;5053112;28;20045;-81
2022/01/13 06:55:36;;;;;;;3.13;1.80;;;;;;;0.47;100.00;99042.09;5035123;28;20095;-81
2022/01/13 06:58:02;;;;;;;5.10;2.67;;;;;;;0.46;100.00;99043.16;5067783;28;20047;-81
2022/01/13 07:00:28;;;;;;;5.53;2.30;;;;;;;0.47;100.00;99052.06;5051252;28;20047;-81
2022/01/13 07:02:56;;;;;;;6.03;2.15;;;;;;;0.48;100.00;99041.00;5050487;28;20055;-80
2022/01/13 07:05:22;;;;;;;4.88;2.10;;;;;;;0.53;100.00;99015.97;5052298;28;20045;-81
2022/01/13 07:07:47;;;;;;;2.85;1.35;;;;;;;0.59;100.00;99041.94;5038580;28;20054;-80
2022/01/13 07:10:13;;;;;;;3.83;1.63;;;;;;;0.66;100.00;99036.31;5052214;28;20119;-81
2022/01/13 07:12:42;;;;;;;3.70;1.67;;;;;;;0.72;100.00;99056.91;5050483;28;20526;-81
2022/01/13 07:15:08;;;;;;;5.28;2.35;;;;;;;0.80;100.00;99049.16;5067404;28;20450;-80
2022/01/13 07:17:34;;;;;;;4.43;1.63;;;;;;;0.80;100.00;99037.53;5051129;28;20044;-81
2022/01/13 07:20:00;;;;;;;3.65;1.80;;;;;;;0.81;100.00;99050.78;5052109;28;20047;-81
2022/01/13 07:22:26;;;;;;;8.13;1.90;;;;;;;0.85;100.00;99056.47;5067090;28;20058;-81
2022/01/13 07:24:51;;;;;;;5.80;1.98;;;;;;;0.88;100.00;99056.00;5034239;28;20098;-81
2022/01/13 07:27:17;;;;;;;5.15;1.65;;;;;;;0.90;100.00;99043.84;5034204;28;20487;-81
2022/01/13 07:29:43;;;;;;;5.65;1.73;;;;;;;0.90;100.00;99049.25;5052233;28;20071;-80
2022/01/13 07:32:12;;;;;;;6.50;1.60;;;;;;;0.88;100.00;99035.19;5034501;28;20043;-81
2022/01/13 07:34:38;;;;;;;4.55;1.50;;;;;;;0.88;100.00;99021.69;5051580;28;20457;-81
2022/01/13 07:37:05;;;;;;;8.88;1.70;;;;;;;0.95;100.00;99034.16;5034084;28;20040;-80
2022/01/13 07:39:31;;;;;;;5.10;1.77;;;;;;;0.94;100.00;99021.72;5052068;28;20044;-82
2022/01/13 07:41:57;;;;;;;6.93;1.75;;;;;;;0.93;100.00;99030.91;5052151;28;20057;-80
2022/01/13 07:44:23;;;;;;;5.55;1.42;;;;;;;0.92;100.00;99000.38;5050704;28;20040;-80
2022/01/13 07:46:49;;;;;;;7.18;1.63;;;;;;;0.87;100.00;98987.66;5051278;28;20051;-79
2022/01/13 07:49:14;;;;;;;7.60;1.48;;;;;;;0.86;100.00;98983.31;5066690;28;20557;-80
2022/01/13 07:51:40;;;;;;;9.98;2.10;;;;;;;0.86;100.00;99012.19;5046614;28;20082;-80
2022/01/13 07:54:06;;;;;;;5.82;1.70;;;;;;;0.85;100.00;99011.38;5051695;28;20503;-80
2022/01/13 07:56:31;;;;;;;5.93;1.20;;;;;;;0.86;100.00;98999.50;5051246;28;20402;-80
2022/01/13 07:58:57;;;;;;;5.60;1.88;;;;;;;0.80;100.00;98995.16;5050861;28;20583;-80
2022/01/13 08:01:23;;;;;;;5.63;1.75;;;;;;;0.76;100.00;98961.66;5046278;28;20103;-80
2022/01/13 08:03:49;;;;;;;4.03;1.42;;;;;;;0.70;100.00;98968.09;5033006;28;20090;-80
2022/01/13 08:06:15;;;;;;;5.35;1.55;;;;;;;0.70;100.00;98978.91;5051487;28;20033;-80
2022/01/13 08:08:41;;;;;;;5.07;1.35;;;;;;;0.67;100.00;99003.69;5051412;28;20044;-80
2022/01/13 08:11:08;;;;;;;6.13;1.50;;;;;;;0.67;100.00;98990.19;5051233;28;20079;-80
2022/01/13 08:13:35;;;;;;;4.68;1.40;;;;;;;0.63;100.00;98977.47;5033357;28;20093;-80
2022/01/13 08:16:06;;;;;;;7.22;1.55;;;;;;;0.55;100.00;98968.78;5033483;28;20087;-80
2022/01/13 08:21:16;;;;;;;7.93;1.85;;;;;;;0.50;100.00;98963.31;5049809;28;20049;-81
2022/01/13 08:23:41;;;;;;;6.78;2.30;;;;;;;0.46;100.00;98961.38;5066242;28;20045;-80
2022/01/13 08:26:07;;;;;;;5.93;1.63;;;;;;;0.44;100.00;98974.31;5050598;28;20057;-80
2022/01/13 08:28:33;;;;;;;3.42;1.60;;;;;;;0.42;100.00;98976.47;5050799;28;20191;-80
2022/01/13 08:30:58;;;;;;;4.60;1.35;;;;;;;0.39;100.00;98975.09;5050687;28;20048;-81
2022/01/13 08:33:25;;;;;;;6.35;1.73;;;;;;;0.35;100.00;98965.06;5050757;28;20035;-81
2022/01/13 08:35:52;;;;;;;6.78;1.52;;;;;;;0.34;100.00;98966.94;5032784;28;20037;-81
2022/01/13 08:38:19;;;;;;;8.25;2.40;;;;;;;0.31;100.00;98943.19;5050847;28;20040;-81
2022/01/13 08:40:49;;;;;;;5.63;1.58;;;;;;;0.28;100.00;98928.31;5033016;28;20170;-81
2022/01/13 08:43:16;;;;;;;6.38;1.77;;;;;;;0.25;100.00;98915.34;5066089;28;20068;-81
2022/01/13 08:45:42;;;;;;;5.32;1.70;;;;;;;0.28;100.00;98933.72;5050809;28;20037;-80
2022/01/13 08:48:08;;;;;;;8.55;1.67;;;;;;;0.29;100.00;98956.09;5050783;28;20096;-81
2022/01/13 08:50:34;;;;;;;8.65;2.17;;;;;;;0.27;100.00;98958.25;5049351;28;20444;-80
2022/01/13 08:53:00;;;;;;;8.18;1.85;;;;;;;0.28;100.00;98946.38;5044531;28;20103;-81
2022/01/13 08:55:26;;;;;;;6.60;1.48;;;;;;;0.25;100.00;98953.13;5047282;28;20041;-81
2022/01/13 08:57:52;;;;;;;6.88;1.63;;;;;;;0.24;100.00;98958.75;5050292;28;20041;-82
2022/01/13 09:00:18;;;;;;;3.25;1.23;;;;;;;0.23;100.00;98952.56;5050911;28;20123;-82
2022/01/13 09:02:44;;;;;;;5.20;1.40;;;;;;;0.22;100.00;98950.13;5049372;28;20510;-82
2022/01/13 09:05:12;;;;;;;6.85;1.83;;;;;;;0.22;100.00;98964.41;5050187;28;20589;-82
2022/01/13 09:07:37;;;;;;;7.60;2.00;;;;;;;0.22;100.00;98961.72;5050595;28;20116;-82
2022/01/13 09:10:04;;;;;;;4.65;1.20;;;;;;;0.22;100.00;98959.03;5050822;28;20182;-82
2022/01/13 09:12:30;;;;;;;5.32;1.52;;;;;;;0.22;100.00;98947.41;5036108;28;20478;-82
2022/01/13 09:15:02;;;;;;;3.85;1.27;;;;;;;0.22;100.00;98942.84;5054098;28;20500;-82
2022/01/13 09:17:28;;;;;;;4.03;1.20;;;;;;;0.26;100.00;98929.66;5054210;28;20202;-82
2022/01/13 09:19:53;;;;;;;5.68;1.50;;;;;;;0.25;100.00;98928.03;5036820;28;20029;-83
2022/01/13 09:22:19;;;;;;;4.68;1.15;;;;;;;0.32;100.00;98941.28;5052985;28;20052;-83
2022/01/13 09:24:45;;;;;;;6.78;1.50;;;;;;;0.36;100.00;98937.03;5052070;28;20041;-83
2022/01/13 09:27:11;;;;;;;3.90;1.30;;;;;;;0.37;100.00;98934.06;5054300;28;20637;-83
2022/01/13 09:29:37;;;;;;;8.40;1.50;;;;;;;0.42;100.00;98923.31;5029973;28;20044;-81
2022/01/13 09:32:03;;;;;;;6.60;1.92;;;;;;;0.41;100.00;98916.28;5052963;28;20033;-83
2022/01/13 09:34:29;;;;;;;4.25;1.17;;;;;;;0.45;100.00;98906.63;5052478;28;20414;-81
2022/01/13 09:36:54;;;;;;;4.55;1.35;;;;;;;0.50;100.00;98913.94;5019442;28;20044;-81
2022/01/13 09:39:20;;;;;;;5.55;1.23;;;;;;;0.52;100.00;98906.38;5054448;28;20053;-81
2022/01/13 09:41:46;;;;;;;5.45;1.40;;;;;;;0.52;100.00;98898.28;5054241;28;20075;-82
2022/01/13 09:44:15;;;;;;;4.20;1.40;;;;;;;0.55;100.00;98887.00;5053687;28;20509;-84
2022/01/13 09:46:42;;;;;;;3.72;1.30;;;;;;;0.57;100.00;98874.06;5054003;28;20487;-84
2022/01/13 09:49:08;;;;;;;5.00;1.30;;;;;;;0.57;100.00;98882.97;5054070;28;20521;-87
2022/01/13 09:51:36;;;;;;;5.57;1.20;;;;;;;0.58;100.00;98876.50;5036104;28;20045;-85
2022/01/13 09:54:02;;;;;;;5.95;1.55;;;;;;;0.56;100.00;98875.13;5035896;28;20083;-84
2022/01/13 09:56:28;;;;;;;3.33;1.30;;;;;;;0.58;100.00;98878.38;5053917;28;20040;-83
2022/01/13 09:58:53;;;;;;;3.33;0.95;;;;;;;0.59;100.00;98874.59;5054049;28;20392;-80
2022/01/13 10:01:19;;;;;;;2.83;0.90;;;;;;;0.62;100.00;98871.38;5048178;28;20041;-84
2022/01/13 10:03:45;;;;;;;4.75;1.20;;;;;;;0.66;100.00;98882.47;5052048;28;20045;-82
2022/01/13 10:06:14;;;;;;;4.25;1.20;;;;;;;0.67;100.00;98876.81;5045036;28;20029;-81
2022/01/13 10:08:51;;;;;;;4.60;0.80;;;;;;;0.66;100.00;98877.88;5050052;28;20044;-79
2022/01/13 10:11:26;;;;;;;2.17;1.00;;;;;;;0.65;100.00;98887.06;5029667;28;20360;-82
2022/01/13 10:14:02;;;;;;;3.28;1.00;;;;;;;0.65;100.00;98897.84;5065977;28;20491;-79
2022/01/13 10:16:28;;;;;;;3.65;0.95;;;;;;;0.65;100.00;98884.34;5055560;28;20053;-80
2022/01/13 10:18:54;;;;;;;1.65;0.65;;;;;;;0.63;100.00;98862.22;5053901;28;20037;-83
2022/01/13 10:21:20;;;;;;;3.40;1.02;;;;;;;0.67;100.00;98867.91;5049404;28;20427;-80
2022/01/13 10:24:09;;;;;;;2.83;0.80;;;;;;;0.69;100.00;98858.47;5053285;28;20033;-82
2022/01/13 10:26:36;;;;;;;2.50;1.00;;;;;;;0.69;100.00;98850.38;5044665;28;20048;-81
2022/01/13 10:29:03;;;;;;;4.07;1.10;;;;;;;0.69;100.00;98844.97;5053133;28;20065;-81
2022/01/13 10:31:42;;;;;;;2.30;0.70;;;;;;;0.67;100.00;98839.03;5049597;28;20064;-82
2022/01/13 10:34:19;;;;;;;2.78;1.20;;;;;;;0.65;100.00;98841.16;5051059;28;20062;-82
2022/01/13 10:37:06;;;;;;;3.20;1.13;;;;;;;0.65;100.00;98841.16;5068464;28;20120;-82
2022/01/13 10:39:53;;;;;;;2.03;0.90;;;;;;;0.63;100.00;98843.31;5051903;28;20063;-83
2022/01/13 10:44:59;;;;;;;2.47;0.93;;;;;;;0.62;100.00;98863.28;5053131;28;20094;-82
2022/01/13 10:47:26;;;;;;;5.13;1.25;;;;;;;0.61;100.00;98858.97;5052717;28;20450;-83
2022/01/13 10:49:52;;;;;;;2.15;1.00;;;;;;;0.63;100.00;98864.91;5051611;28;20037;-82
2022/01/13 10:52:26;;;;;;;4.05;0.98;;;;;;;0.64;100.00;98863.03;5052702;28;20037;-82
2022/01/13 10:55:11;;;;;;;2.97;1.10;;;;;;;0.63;100.00;98853.31;5052850;28;20036;-82
2022/01/13 10:57:38;;;;;;;2.30;0.90;;;;;;;0.63;100.00;98864.09;5052300;28;20411;-82
2022/01/13 11:00:06;;;;;;;3.35;0.85;;;;;;;0.70;100.00;98867.41;5065939;28;20044;-82
2022/01/13 11:02:32;;;;;;;4.88;1.73;;;;;;;0.70;100.00;98872.81;5034791;28;20040;-81
2022/01/13 11:05:01;;;;;;;5.53;1.17;;;;;;;0.71;100.00;98871.72;5034793;28;20037;-82
2022/01/13 11:07:27;;;;;;;4.55;1.75;;;;;;;0.74;100.00;98866.63;5032426;28;20087;-82
2022/01/13 11:10:02;;;;;;;3.42;1.10;;;;;;;0.77;100.00;98865.28;5039494;28;20041;-81
2022/01/13 11:12:54;;;;;;;1.70;0.90;;;;;;;0.78;100.00;98880.41;5034314;28;20045;-82
2022/01/13 11:15:20;;;;;;;3.47;1.10;;;;;;;0.76;100.00;98848.28;5039079;28;20045;-82
2022/01/13 11:17:45;;;;;;;3.30;1.13;;;;;;;0.78;100.00;98850.69;5034187;28;20063;-82
2022/01/13 11:20:17;;;;;;;1.67;0.82;;;;;;;0.82;100.00;98841.81;5052234;28;20495;-82
2022/01/13 11:22:45;;;;;;;4.40;1.00;;;;;;;0.84;99.90;98839.66;5052054;28;20059;-82
2022/01/13 11:25:16;;;;;;;3.72;0.85;;;;;;;0.88;100.00;98846.19;5052246;28;20585;-82
2022/01/13 11:27:43;;;;;;;2.38;0.90;;;;;;;0.92;100.00;98834.84;5067715;28;20094;-82
2022/01/13 11:30:14;;;;;;;4.20;1.08;;;;;;;0.95;100.00;98842.44;5052100;28;20495;-82
2022/01/13 11:32:42;;;;;;;3.83;1.20;;;;;;;1.00;100.00;98831.63;5051605;28;20043;-82
2022/01/13 11:35:10;;;;;;;4.10;1.30;;;;;;;1.00;99.98;98804.63;5051705;28;20052;-82
2022/01/13 11:37:39;;;;;;;7.38;1.40;;;;;;;1.02;100.00;98837.59;5051757;28;20048;-82
2022/01/13 11:40:06;;;;;;;4.57;1.17;;;;;;;1.01;99.99;98817.88;5048466;28;20407;-82
2022/01/13 11:42:44;;;;;;;2.90;0.93;;;;;;;1.01;99.87;98823.28;5043345;28;20037;-82
2022/01/13 11:45:15;;;;;;;2.60;1.30;;;;;;;1.02;99.77;98837.59;5051540;28;20509;-82
2022/01/13 11:47:41;;;;;;;2.88;1.00;;;;;;;1.05;99.57;98831.69;5050410;28;20037;-82
2022/01/13 11:50:21;;;;;;;1.58;0.82;;;;;;;1.08;99.74;98825.75;5073476;28;20425;-82
2022/01/13 11:52:52;;;;;;;2.08;0.75;;;;;;;1.11;99.46;98817.94;5050311;28;20465;-82
2022/01/13 11:55:19;;;;;;;4.05;0.73;;;;;;;1.12;99.72;98816.03;5051934;28;20175;-81
2022/01/13 11:57:44;;;;;;;2.70;1.08;;;;;;;1.15;99.43;98819.03;5051437;28;20135;-82